Temp: 5.1°C   Baro: 1026.6mb
  Wind: 0.9mph   Dir: WSW (258°)
  Rain: 0.0mm (0.0mm/hr)
  Humidity: 88%

Historic data

Bath Spa Weather Station Historical Data
Daily Summary for November 30, 2022 Units:  Metric    English   Both
Daily Weekly Monthly Yearly Custom
  High: Low: Average:
Temperature: 7.7 °C 2.9 °C 5.2 °C
Dew Point: 6.8 °C 2 °C 4.4 °C
Humidity: 96% 93% 95%
Wind Speed: 6.4km/h 0km/h 2.4km/h
Wind Gust: 14.5km/h - -
Wind- - East
Pressure: 1029.3 hPa 1022.6 hPa -
Precipitation: 0 mm    
Historical Graphs
 
 
Tabular Data for November 30, 2022
Time Temperature Dew Point Pressure Wind Wind Speed Wind Gust Humidity Rainfall Rate (Hourly) solar
00:09 4.5 °C 3.9 °C 1022.9 hPa East 3.4 km/h 9.7 km/h 96% 0 mm 0 W/m2
00:14 4.6 °C 3.9 °C 1022.9 hPa East 5.3 km/h 9.7 km/h 96% 0 mm 0 W/m2
00:19 4.6 °C 4 °C 1022.9 hPa East 1.9 km/h 8 km/h 96% 0 mm 0 W/m2
00:24 4.6 °C 3.9 °C 1022.9 hPa ESE 2.1 km/h 8 km/h 96% 0 mm 0 W/m2
00:29 4.5 °C 3.9 °C 1022.9 hPa ENE 3.9 km/h 11.3 km/h 96% 0 mm 0 W/m2
00:34 4.5 °C 3.9 °C 1022.9 hPa ENE 3.4 km/h 9.7 km/h 96% 0 mm 0 W/m2
00:39 4.5 °C 3.9 °C 1022.9 hPa ENE 6.1 km/h 9.7 km/h 96% 0 mm 0 W/m2
00:44 4.5 °C 3.9 °C 1022.9 hPa ENE 2.1 km/h 8 km/h 96% 0 mm 0 W/m2
00:49 4.5 °C 3.9 °C 1022.9 hPa East 3.4 km/h 11.3 km/h 96% 0 mm 0 W/m2
00:54 4.6 °C 3.9 °C 1022.9 hPa ESE 4.8 km/h 11.3 km/h 96% 0 mm 0 W/m2
00:59 4.6 °C 3.9 °C 1022.9 hPa ESE 4.5 km/h 8 km/h 96% 0 mm 0 W/m2
01:04 4.6 °C 3.9 °C 1022.9 hPa East 3.5 km/h 9.7 km/h 96% 0 mm 0 W/m2
01:09 4.5 °C 3.9 °C 1022.9 hPa ENE 2.6 km/h 8 km/h 96% 0 mm 0 W/m2
01:14 4.4 °C 3.8 °C 1022.6 hPa East 2.7 km/h 9.7 km/h 96% 0 mm 0 W/m2
01:19 4.4 °C 3.8 °C 1022.6 hPa East 6 km/h 12.9 km/h 96% 0 mm 0 W/m2
01:24 4.4 °C 3.8 °C 1022.6 hPa East 2.7 km/h 11.3 km/h 96% 0 mm 0 W/m2
01:29 4.4 °C 3.8 °C 1022.6 hPa ESE 1.8 km/h 8 km/h 96% 0 mm 0 W/m2
01:34 4.3 °C 3.8 °C 1022.6 hPa ESE 1.6 km/h 4.8 km/h 96% 0 mm 0 W/m2
01:39 4.3 °C 3.7 °C 1022.6 hPa ESE 1 km/h 4.8 km/h 96% 0 mm 0 W/m2
01:44 4.3 °C 3.7 °C 1022.6 hPa ESE 1.4 km/h 6.4 km/h 96% 0 mm 0 W/m2
01:49 4.3 °C 3.7 °C 1022.9 hPa ESE 1.1 km/h 3.2 km/h 96% 0 mm 0 W/m2
01:54 4.3 °C 3.7 °C 1022.9 hPa ESE 0.6 km/h 3.2 km/h 96% 0 mm 0 W/m2
01:59 4.2 °C 3.6 °C 1022.9 hPa ESE 2.1 km/h 4.8 km/h 96% 0 mm 0 W/m2
02:04 4.3 °C 3.7 °C 1022.9 hPa ESE 0.3 km/h 3.2 km/h 96% 0 mm 0 W/m2
02:09 4.3 °C 3.7 °C 1022.9 hPa ESE 2.1 km/h 4.8 km/h 96% 0 mm 0 W/m2
02:14 4.3 °C 3.7 °C 1022.9 hPa ESE 3.2 km/h 6.4 km/h 96% 0 mm 0 W/m2
02:19 4.3 °C 3.7 °C 1022.9 hPa ESE 0.8 km/h 4.8 km/h 96% 0 mm 0 W/m2
02:24 4.3 °C 3.7 °C 1022.9 hPa ESE 2.7 km/h 6.4 km/h 96% 0 mm 0 W/m2
02:29 4.3 °C 3.7 °C 1022.9 hPa ESE 2.9 km/h 6.4 km/h 96% 0 mm 0 W/m2
02:34 4.4 °C 3.8 °C 1023.2 hPa ESE 4.2 km/h 8 km/h 96% 0 mm 0 W/m2
02:39 4.4 °C 3.8 °C 1022.9 hPa ESE 3.9 km/h 6.4 km/h 96% 0 mm 0 W/m2
02:44 4.4 °C 3.8 °C 1022.9 hPa ESE 2.9 km/h 6.4 km/h 96% 0 mm 0 W/m2
02:49 4.4 °C 3.8 °C 1022.9 hPa ESE 0.6 km/h 4.8 km/h 96% 0 mm 0 W/m2
02:53 4.4 °C 3.8 °C 1022.9 hPa ESE 2.4 km/h 4.8 km/h 96% 0 mm 0 W/m2
02:59 4.4 °C 3.8 °C 1022.9 hPa ESE 0.8 km/h 3.2 km/h 96% 0 mm 0 W/m2
03:04 4.4 °C 3.8 °C 1022.9 hPa ESE 2.6 km/h 6.4 km/h 96% 0 mm 0 W/m2
03:09 4.4 °C 3.8 °C 1023.2 hPa ESE 2.1 km/h 6.4 km/h 96% 0 mm 0 W/m2
03:14 4.4 °C 3.8 °C 1023.2 hPa ESE 2.1 km/h 4.8 km/h 96% 0 mm 0 W/m2
03:19 4.4 °C 3.8 °C 1023.2 hPa ESE 0.6 km/h 4.8 km/h 96% 0 mm 0 W/m2
03:24 4.4 °C 3.8 °C 1023.2 hPa ESE 2.4 km/h 4.8 km/h 96% 0 mm 0 W/m2
03:29 4.4 °C 3.8 °C 1022.9 hPa ESE 4.3 km/h 11.3 km/h 96% 0 mm 0 W/m2
03:34 4.4 °C 3.8 °C 1022.9 hPa East 1.3 km/h 6.4 km/h 96% 0 mm 0 W/m2
03:39 4.4 °C 3.8 °C 1022.9 hPa East 1.3 km/h 4.8 km/h 96% 0 mm 0 W/m2
03:44 4.4 °C 3.8 °C 1023.2 hPa East 1.3 km/h 4.8 km/h 96% 0 mm 0 W/m2
03:49 4.4 °C 3.8 °C 1023.2 hPa East 0.6 km/h 3.2 km/h 96% 0 mm 0 W/m2
03:54 4.4 °C 3.8 °C 1023.2 hPa ESE 2.7 km/h 4.8 km/h 96% 0 mm 0 W/m2
03:59 4.4 °C 3.8 °C 1023.2 hPa ESE 3.9 km/h 6.4 km/h 96% 0 mm 0 W/m2
04:04 4.5 °C 3.9 °C 1023.2 hPa ESE 1.6 km/h 6.4 km/h 96% 0 mm 0 W/m2
04:09 4.5 °C 3.9 °C 1023.2 hPa ESE 1.6 km/h 4.8 km/h 96% 0 mm 0 W/m2
04:14 4.5 °C 3.9 °C 1023.2 hPa ESE 4.2 km/h 12.9 km/h 96% 0 mm 0 W/m2
04:19 4.5 °C 3.9 °C 1023.2 hPa ESE 3.5 km/h 12.9 km/h 96% 0 mm 0 W/m2
04:24 4.5 °C 3.9 °C 1023.2 hPa ENE 4 km/h 9.7 km/h 96% 0 mm 0 W/m2
04:29 4.5 °C 3.9 °C 1023.2 hPa East 0.8 km/h 9.7 km/h 96% 0 mm 0 W/m2
04:34 4.4 °C 3.8 °C 1023.2 hPa East 1.9 km/h 8 km/h 96% 0 mm 0 W/m2
04:39 4.4 °C 3.8 °C 1023.6 hPa East 0.6 km/h 9.7 km/h 96% 0 mm 0 W/m2
04:44 4.4 °C 3.8 °C 1023.6 hPa East 2.3 km/h 8 km/h 96% 0 mm 0 W/m2
04:49 4.4 °C 3.8 °C 1023.6 hPa East 2.1 km/h 8 km/h 96% 0 mm 0 W/m2
04:54 4.3 °C 3.8 °C 1023.6 hPa East 2.7 km/h 9.7 km/h 96% 0 mm 0 W/m2
04:59 4.3 °C 3.7 °C 1023.6 hPa East 3.2 km/h 6.4 km/h 96% 0 mm 0 W/m2
05:04 4.3 °C 3.7 °C 1023.6 hPa ESE 3.7 km/h 8 km/h 96% 0 mm 0 W/m2
05:09 4.4 °C 3.8 °C 1023.6 hPa ESE 2.4 km/h 8 km/h 96% 0 mm 0 W/m2
05:14 4.4 °C 3.8 °C 1023.6 hPa NE 4.3 km/h 9.7 km/h 96% 0 mm 0 W/m2
05:19 4.3 °C 3.8 °C 1023.6 hPa ESE 2.7 km/h 8 km/h 96% 0 mm 0 W/m2
05:23 4.3 °C 3.7 °C 1023.6 hPa ESE 5.1 km/h 8 km/h 96% 0 mm 0 W/m2
05:29 4.3 °C 3.7 °C 1023.6 hPa ESE 2.9 km/h 4.8 km/h 96% 0 mm 0 W/m2
05:34 4.3 °C 3.7 °C 1023.6 hPa ESE 2.6 km/h 9.7 km/h 96% 0 mm 0 W/m2
05:39 4.3 °C 3.7 °C 1023.6 hPa ESE 1.3 km/h 6.4 km/h 96% 0 mm 0 W/m2
05:44 4.3 °C 3.7 °C 1023.6 hPa ESE 2.1 km/h 6.4 km/h 96% 0 mm 0 W/m2
05:49 4.3 °C 3.7 °C 1023.6 hPa East 4.5 km/h 11.3 km/h 96% 0 mm 0 W/m2
05:54 4.3 °C 3.7 °C 1023.6 hPa East 2.6 km/h 11.3 km/h 96% 0 mm 0 W/m2
05:59 4.3 °C 3.7 °C 1023.6 hPa East 3.2 km/h 11.3 km/h 96% 0 mm 0 W/m2
06:04 4.3 °C 3.7 °C 1023.6 hPa ESE 3.5 km/h 6.4 km/h 96% 0 mm 0 W/m2
06:09 4.3 °C 3.7 °C 1023.6 hPa East 3.9 km/h 9.7 km/h 96% 0 mm 0 W/m2
06:14 4.3 °C 3.7 °C 1023.9 hPa East 4 km/h 9.7 km/h 96% 0 mm 0 W/m2
06:19 4.3 °C 3.7 °C 1023.9 hPa East 3.5 km/h 8 km/h 96% 0 mm 0 W/m2
06:24 4.3 °C 3.7 °C 1023.9 hPa ESE 3.2 km/h 11.3 km/h 96% 0 mm 0 W/m2
06:29 4.3 °C 3.7 °C 1023.9 hPa ESE 2.3 km/h 6.4 km/h 96% 0 mm 0 W/m2
06:34 4.3 °C 3.7 °C 1023.9 hPa SE 1.9 km/h 6.4 km/h 96% 0 mm 0 W/m2
06:39 4.4 °C 3.8 °C 1023.9 hPa SE 0.8 km/h 4.8 km/h 96% 0 mm 0 W/m2
06:44 4.4 °C 3.8 °C 1023.9 hPa ESE 3.2 km/h 8 km/h 96% 0 mm 0 W/m2
06:49 4.4 °C 3.8 °C 1023.9 hPa ESE 1.1 km/h 4.8 km/h 96% 0 mm 0 W/m2
06:54 4.4 °C 3.8 °C 1023.9 hPa ESE 1.8 km/h 4.8 km/h 96% 0 mm 0 W/m2
06:59 4.3 °C 3.8 °C 1023.9 hPa ESE 2.6 km/h 8 km/h 96% 0 mm 0 W/m2
07:04 4.4 °C 3.8 °C 1023.9 hPa East 2.4 km/h 8 km/h 96% 0 mm 0 W/m2
07:09 4.6 °C 3.8 °C 1023.9 hPa East 1 km/h 6.4 km/h 95% 0 mm 0 W/m2
07:14 4.7 °C 4 °C 1023.9 hPa East 1.8 km/h 8 km/h 95.4% 0 mm 0 W/m2
07:19 4.6 °C 3.8 °C 1023.9 hPa East 3.2 km/h 8 km/h 95% 0 mm 0 W/m2
07:24 4.4 °C 3.7 °C 1023.9 hPa East 5 km/h 8 km/h 95.4% 0 mm 0 W/m2
07:29 4.3 °C 3.7 °C 1023.9 hPa ESE 3.5 km/h 11.3 km/h 95.8% 0 mm 0 W/m2
07:34 4.3 °C 3.6 °C 1023.9 hPa SE 3.9 km/h 9.7 km/h 95% 0 mm 0 W/m2
07:39 4.8 °C 4.1 °C 1024.3 hPa ESE 3.4 km/h 11.3 km/h 95.2% 0 mm 0 W/m2
07:43 5.1 °C 4.4 °C 1024.3 hPa ESE 5.1 km/h 14.5 km/h 95.3% 0 mm 0 W/m2
07:49 5.5 °C 4.8 °C 1024.3 hPa East 3.4 km/h 14.5 km/h 95.4% 0 mm 0 W/m2
07:54 5.6 °C 4.9 °C 1024.3 hPa ENE 2.7 km/h 8 km/h 95% 0 mm 0 W/m2
07:59 5.4 °C 4.7 °C 1024.3 hPa ESE 4.7 km/h 8 km/h 95.2% 0 mm 5 W/m2
08:04 4.9 °C 4.2 °C 1024.6 hPa ESE 2.1 km/h 6.4 km/h 95% 0 mm 7 W/m2
08:09 5.3 °C 4.6 °C 1024.3 hPa ESE 3.9 km/h 6.4 km/h 95% 0 mm 7 W/m2
08:14 5.1 °C 4.4 °C 1024.6 hPa ESE 2.7 km/h 8 km/h 95.2% 0 mm 9 W/m2
08:19 4.6 °C 3.8 °C 1024.6 hPa SE 4.5 km/h 8 km/h 95% 0 mm 7 W/m2
08:24 4.3 °C 3.7 °C 1024.6 hPa SE 3.5 km/h 8 km/h 95% 0 mm 7 W/m2
08:29 4.4 °C 3.7 °C 1024.9 hPa SE 3.9 km/h 11.3 km/h 95% 0 mm 9 W/m2
08:34 4.8 °C 4.1 °C 1024.6 hPa East 6 km/h 11.3 km/h 95% 0 mm 9 W/m2
08:39 5.2 °C 4.4 °C 1024.6 hPa ESE 4.7 km/h 11.3 km/h 95% 0 mm 11 W/m2
08:44 5.1 °C 4.4 °C 1024.9 hPa East 4.5 km/h 11.3 km/h 95% 0 mm 12 W/m2
08:49 5 °C 4.3 °C 1024.9 hPa ESE 4 km/h 11.3 km/h 95% 0 mm 11 W/m2
08:54 4.5 °C 3.8 °C 1024.9 hPa ESE 4.5 km/h 11.3 km/h 95% 0 mm 11 W/m2
08:59 4.3 °C 3.6 °C 1024.9 hPa ESE 4 km/h 9.7 km/h 95% 0 mm 19 W/m2
09:04 4.3 °C 3.6 °C 1024.9 hPa ESE 1.9 km/h 9.7 km/h 95% 0 mm 23 W/m2
09:09 4.3 °C 3.6 °C 1024.9 hPa ESE 3.2 km/h 6.4 km/h 95% 0 mm 26 W/m2
09:14 4.3 °C 3.6 °C 1024.9 hPa East 4.5 km/h 11.3 km/h 95% 0 mm 32 W/m2
09:19 4.3 °C 3.6 °C 1024.9 hPa East 4.5 km/h 12.9 km/h 95% 0 mm 32 W/m2
09:24 4.3 °C 3.6 °C 1024.9 hPa East 4.5 km/h 12.9 km/h 95% 0 mm 26 W/m2
09:29 4.3 °C 3.6 °C 1024.9 hPa ESE 5 km/h 12.9 km/h 95% 0 mm 35 W/m2
09:34 4.3 °C 3.6 °C 1024.9 hPa SE 2.6 km/h 11.3 km/h 95% 0 mm 37 W/m2
09:39 4.3 °C 3.6 °C 1024.9 hPa East 4 km/h 11.3 km/h 95% 0 mm 44 W/m2
09:44 4.3 °C 3.6 °C 1025.3 hPa East 2.7 km/h 12.9 km/h 95% 0 mm 56 W/m2
09:49 4.4 °C 3.7 °C 1025.3 hPa East 4.5 km/h 12.9 km/h 95% 0 mm 62 W/m2
09:54 4.4 °C 3.7 °C 1025.3 hPa ESE 6.4 km/h 12.9 km/h 95% 0 mm 60 W/m2
09:59 4.5 °C 3.8 °C 1025.3 hPa ESE 5.3 km/h 12.9 km/h 95% 0 mm 62 W/m2
10:04 4.6 °C 3.8 °C 1025.3 hPa East 3.1 km/h 11.3 km/h 95% 0 mm 67 W/m2
10:09 4.6 °C 3.9 °C 1025.6 hPa East 4.2 km/h 12.9 km/h 95% 0 mm 76 W/m2
10:14 4.7 °C 3.9 °C 1025.6 hPa East 1.8 km/h 6.4 km/h 95% 0 mm 74 W/m2
10:19 4.7 °C 4.1 °C 1025.6 hPa ENE 4.3 km/h 9.7 km/h 95% 0 mm 81 W/m2
10:24 4.8 °C 4.2 °C 1025.6 hPa ENE 2.7 km/h 8 km/h 95% 0 mm 86 W/m2
10:29 4.9 °C 4.2 °C 1025.6 hPa ENE 3.4 km/h 9.7 km/h 95% 0 mm 90 W/m2
10:34 5.1 °C 4.3 °C 1025.6 hPa ENE 3.1 km/h 8 km/h 95% 0 mm 93 W/m2
10:39 5.1 °C 4.4 °C 1025.6 hPa East 4.7 km/h 11.3 km/h 95% 0 mm 90 W/m2
10:44 5.2 °C 4.5 °C 1025.6 hPa East 2.7 km/h 11.3 km/h 95% 0 mm 91 W/m2
10:49 5.3 °C 4.6 °C 1025.6 hPa ENE 5.1 km/h 11.3 km/h 95% 0 mm 91 W/m2
10:54 5.3 °C 4.6 °C 1025.6 hPa East 4 km/h 11.3 km/h 95% 0 mm 74 W/m2
10:59 5.4 °C 4.7 °C 1025.6 hPa East 5.3 km/h 9.7 km/h 95% 0 mm 74 W/m2
11:04 5.4 °C 4.7 °C 1025.6 hPa East 4.7 km/h 8 km/h 95% 0 mm 76 W/m2
11:09 5.5 °C 4.8 °C 1025.6 hPa East 3.1 km/h 9.7 km/h 95% 0 mm 83 W/m2
11:14 5.6 °C 4.9 °C 1026 hPa ENE 1.3 km/h 8 km/h 95% 0 mm 74 W/m2
11:19 5.6 °C 4.9 °C 1026 hPa ENE 1.6 km/h 4.8 km/h 95% 0 mm 67 W/m2
11:24 5.6 °C 4.9 °C 1026 hPa ENE 2.1 km/h 4.8 km/h 95% 0 mm 67 W/m2
11:29 5.7 °C 4.9 °C 1025.6 hPa ENE 2.6 km/h 11.3 km/h 95% 0 mm 70 W/m2
11:34 5.7 °C 5 °C 1025.6 hPa NE 2.1 km/h 6.4 km/h 95% 0 mm 88 W/m2
11:39 5.8 °C 5.1 °C 1025.6 hPa ESE 4 km/h 8 km/h 95% 0 mm 102 W/m2
11:44 5.8 °C 5.1 °C 1025.6 hPa ESE 1.8 km/h 8 km/h 95% 0 mm 105 W/m2
11:49 5.8 °C 5.1 °C 1025.6 hPa ESE 3.4 km/h 8 km/h 95% 0 mm 102 W/m2
11:54 5.8 °C 5.2 °C 1025.6 hPa East 4 km/h 11.3 km/h 95% 0 mm 107 W/m2
11:59 5.9 °C 5.2 °C 1025.6 hPa East 3.2 km/h 11.3 km/h 95% 0 mm 97 W/m2
12:04 5.9 °C 5.3 °C 1025.6 hPa East 3.2 km/h 8 km/h 95% 0 mm 74 W/m2
12:09 6.1 °C 5.4 °C 1025.6 hPa East 4 km/h 11.3 km/h 95% 0 mm 86 W/m2
12:14 6.1 °C 5.4 °C 1025.6 hPa East 5 km/h 9.7 km/h 95% 0 mm 88 W/m2
12:19 6.2 °C 5.5 °C 1025.6 hPa ENE 4 km/h 11.3 km/h 95% 0 mm 97 W/m2
12:24 6.2 °C 5.5 °C 1025.6 hPa East 4.8 km/h 9.7 km/h 95% 0 mm 114 W/m2
12:29 6.2 °C 5.5 °C 1025.6 hPa ENE 5 km/h 12.9 km/h 95% 0 mm 123 W/m2
12:34 6.2 °C 5.5 °C 1025.6 hPa ESE 3.9 km/h 6.4 km/h 95% 0 mm 104 W/m2
12:39 6.2 °C 5.6 °C 1025.6 hPa ESE 2.6 km/h 8 km/h 95% 0 mm 90 W/m2
12:44 6.3 °C 5.6 °C 1025.6 hPa ESE 3.5 km/h 6.4 km/h 95% 0 mm 56 W/m2
12:49 6.3 °C 5.6 °C 1025.6 hPa ENE 6.1 km/h 11.3 km/h 95% 0 mm 60 W/m2
12:54 6.4 °C 5.7 °C 1025.6 hPa ENE 3.2 km/h 11.3 km/h 95% 0 mm 72 W/m2
12:59 6.5 °C 5.8 °C 1025.6 hPa East 4 km/h 8 km/h 95% 0 mm 40 W/m2
13:04 6.5 °C 5.8 °C 1026 hPa East 3.2 km/h 8 km/h 95% 0 mm 62 W/m2
13:09 6.6 °C 5.9 °C 1026 hPa ESE 3.2 km/h 8 km/h 95% 0 mm 62 W/m2
13:14 6.7 °C 5.9 °C 1026 hPa ESE 3.1 km/h 6.4 km/h 95% 0 mm 58 W/m2
13:19 6.8 °C 6.1 °C 1026 hPa ESE 3.5 km/h 6.4 km/h 95% 0 mm 65 W/m2
13:24 6.8 °C 6.1 °C 1026 hPa ESE 1.9 km/h 6.4 km/h 95% 0 mm 62 W/m2
13:29 6.9 °C 6.1 °C 1026 hPa ESE 2.7 km/h 6.4 km/h 94.4% 0 mm 56 W/m2
13:34 7 °C 6.2 °C 1026 hPa ESE 1.1 km/h 6.4 km/h 94.8% 0 mm 54 W/m2
13:39 7.1 °C 6.4 °C 1026 hPa ESE 1.8 km/h 4.8 km/h 95% 0 mm 54 W/m2
13:44 7.2 °C 6.4 °C 1026 hPa ESE 1.4 km/h 4.8 km/h 94.6% 0 mm 53 W/m2
13:49 7.2 °C 6.3 °C 1026 hPa ESE 2.4 km/h 3.2 km/h 94% 0 mm 51 W/m2
13:54 7.3 °C 6.4 °C 1026 hPa ESE 1.6 km/h 4.8 km/h 94% 0 mm 46 W/m2
13:59 7.3 °C 6.4 °C 1026 hPa ESE 0.8 km/h 3.2 km/h 94% 0 mm 40 W/m2
14:04 7.4 °C 6.5 °C 1026 hPa ESE 2.1 km/h 4.8 km/h 94% 0 mm 44 W/m2
14:09 7.4 °C 6.5 °C 1026 hPa East 4.7 km/h 9.7 km/h 94% 0 mm 44 W/m2
14:14 7.5 °C 6.6 °C 1026 hPa ENE 4 km/h 9.7 km/h 94% 0 mm 44 W/m2
14:19 7.5 °C 6.6 °C 1025.6 hPa NE 2.6 km/h 6.4 km/h 94% 0 mm 42 W/m2
14:24 7.6 °C 6.7 °C 1025.6 hPa NE 2.6 km/h 4.8 km/h 94% 0 mm 47 W/m2
14:29 7.6 °C 6.7 °C 1025.6 hPa NE 2.9 km/h 6.4 km/h 94% 0 mm 47 W/m2
14:34 7.6 °C 6.7 °C 1025.6 hPa East 3.4 km/h 9.7 km/h 94% 0 mm 51 W/m2
14:39 7.6 °C 6.7 °C 1025.6 hPa ENE 3.9 km/h 8 km/h 94% 0 mm 53 W/m2
14:44 7.6 °C 6.7 °C 1025.6 hPa ENE 2.4 km/h 6.4 km/h 94% 0 mm 49 W/m2
14:49 7.7 °C 6.8 °C 1025.6 hPa ENE 2.1 km/h 8 km/h 94% 0 mm 49 W/m2
14:54 7.7 °C 6.8 °C 1025.6 hPa NE 4.2 km/h 9.7 km/h 94% 0 mm 51 W/m2
14:58 7.7 °C 6.8 °C 1025.6 hPa ENE 2.1 km/h 6.4 km/h 94% 0 mm 44 W/m2
15:04 7.6 °C 6.7 °C 1025.6 hPa ENE 4.7 km/h 11.3 km/h 94% 0 mm 40 W/m2
15:09 7.6 °C 6.7 °C 1025.6 hPa ENE 2.6 km/h 8 km/h 94% 0 mm 35 W/m2
15:14 7.6 °C 6.7 °C 1026 hPa ENE 2.4 km/h 12.9 km/h 94% 0 mm 32 W/m2
15:19 7.5 °C 6.5 °C 1026 hPa NE 3.4 km/h 9.7 km/h 93.6% 0 mm 32 W/m2
15:24 7.4 °C 6.3 °C 1026 hPa ENE 3.9 km/h 9.7 km/h 93% 0 mm 26 W/m2
15:29 7.4 °C 6.3 °C 1026 hPa ENE 4.7 km/h 9.7 km/h 93% 0 mm 21 W/m2
15:34 7.3 °C 6.2 °C 1026 hPa ENE 2.9 km/h 8 km/h 93% 0 mm 18 W/m2
15:39 7.3 °C 6.2 °C 1026 hPa ENE 5 km/h 11.3 km/h 93% 0 mm 16 W/m2
15:44 7.3 °C 6.2 °C 1026 hPa East 3.1 km/h 8 km/h 93% 0 mm 14 W/m2
15:49 7.2 °C 6.1 °C 1026 hPa ENE 4.2 km/h 12.9 km/h 93% 0 mm 12 W/m2
15:54 7.2 °C 6.1 °C 1026 hPa NE 3.2 km/h 6.4 km/h 93% 0 mm 11 W/m2
15:59 7.1 °C 6 °C 1026 hPa ENE 3.5 km/h 8 km/h 93% 0 mm 9 W/m2
16:04 7.1 °C 5.9 °C 1026 hPa ESE 3.5 km/h 8 km/h 93% 0 mm 7 W/m2
16:09 7 °C 5.9 °C 1026 hPa ESE 3.1 km/h 8 km/h 93% 0 mm 5 W/m2
16:14 6.9 °C 5.8 °C 1026 hPa East 2.7 km/h 9.7 km/h 93% 0 mm 5 W/m2
16:19 6.9 °C 5.8 °C 1026 hPa ENE 2.1 km/h 4.8 km/h 93% 0 mm 0 W/m2
16:24 6.9 °C 5.8 °C 1026.3 hPa East 3.1 km/h 8 km/h 93% 0 mm 0 W/m2
16:29 6.9 °C 5.8 °C 1026.3 hPa ESE 2.7 km/h 8 km/h 93% 0 mm 0 W/m2
16:34 6.8 °C 5.7 °C 1026.3 hPa ESE 1.9 km/h 6.4 km/h 93% 0 mm 0 W/m2
16:39 6.8 °C 5.7 °C 1026.3 hPa ESE 1.9 km/h 6.4 km/h 93% 0 mm 0 W/m2
16:44 6.8 °C 5.7 °C 1026.3 hPa ESE 1.3 km/h 6.4 km/h 93% 0 mm 0 W/m2
16:49 6.7 °C 5.6 °C 1026.6 hPa SE 1.4 km/h 3.2 km/h 93% 0 mm 0 W/m2
16:54 6.7 °C 5.6 °C 1026.6 hPa SE 1.1 km/h 6.4 km/h 93% 0 mm 0 W/m2
16:59 6.6 °C 5.5 °C 1026.6 hPa SE 1.3 km/h 4.8 km/h 93% 0 mm 0 W/m2
17:04 6.6 °C 5.4 °C 1026.6 hPa SE 3.9 km/h 6.4 km/h 93% 0 mm 0 W/m2
17:09 6.4 °C 5.4 °C 1026.6 hPa SE 1.8 km/h 6.4 km/h 93% 0 mm 0 W/m2
17:14 6.3 °C 5.3 °C 1026.6 hPa SE 2.1 km/h 6.4 km/h 93% 0 mm 0 W/m2
17:19 6.2 °C 5.2 °C 1026.6 hPa SE 1.9 km/h 4.8 km/h 93% 0 mm 0 W/m2
17:24 6.2 °C 5.2 °C 1026.6 hPa SE 1 km/h 4.8 km/h 93% 0 mm 0 W/m2
17:29 6.1 °C 5.1 °C 1026.6 hPa SE 1.1 km/h 4.8 km/h 93% 0 mm 0 W/m2
17:34 6.1 °C 5.1 °C 1027 hPa SE 0.8 km/h 4.8 km/h 93% 0 mm 0 W/m2
17:39 5.9 °C 4.9 °C 1027 hPa SE 0.3 km/h 3.2 km/h 93% 0 mm 0 W/m2
17:44 5.9 °C 4.9 °C 1026.6 hPa SE 1.1 km/h 4.8 km/h 93% 0 mm 0 W/m2
17:49 5.8 °C 4.8 °C 1027 hPa SE 1.4 km/h 3.2 km/h 93% 0 mm 0 W/m2
17:54 5.8 °C 4.8 °C 1027 hPa SE 1.4 km/h 6.4 km/h 93% 0 mm 0 W/m2
17:59 5.8 °C 4.8 °C 1027 hPa SE 2.1 km/h 6.4 km/h 93% 0 mm 0 W/m2
18:04 5.9 °C 4.9 °C 1027.3 hPa SE 2.3 km/h 4.8 km/h 93% 0 mm 0 W/m2
18:09 5.9 °C 4.9 °C 1027.3 hPa SE 1.9 km/h 4.8 km/h 93% 0 mm 0 W/m2
18:14 6 °C 5.1 °C 1027.3 hPa ESE 1.9 km/h 4.8 km/h 93.8% 0 mm 0 W/m2
18:19 6.1 °C 5.2 °C 1027.3 hPa ESE 3.2 km/h 6.4 km/h 94% 0 mm 0 W/m2
18:24 6.2 °C 5.3 °C 1027.3 hPa ESE 4.5 km/h 8 km/h 94% 0 mm 0 W/m2
18:29 6.2 °C 5.3 °C 1027.3 hPa ESE 2.6 km/h 6.4 km/h 94% 0 mm 0 W/m2
18:34 6.2 °C 5.3 °C 1027.7 hPa ESE 1.8 km/h 4.8 km/h 94% 0 mm 0 W/m2
18:39 6.3 °C 5.3 °C 1027.7 hPa ESE 3.2 km/h 6.4 km/h 94% 0 mm 0 W/m2
18:44 6.3 °C 5.4 °C 1027.7 hPa ESE 2.4 km/h 8 km/h 94% 0 mm 0 W/m2
18:49 6.3 °C 5.4 °C 1027.7 hPa East 2.4 km/h 8 km/h 94% 0 mm 0 W/m2
18:54 6.3 °C 5.4 °C 1028 hPa NE 3.7 km/h 6.4 km/h 94% 0 mm 0 W/m2
18:59 6.4 °C 5.5 °C 1028 hPa NE 2.9 km/h 4.8 km/h 94% 0 mm 0 W/m2
19:04 6.4 °C 5.5 °C 1028 hPa ENE 1.4 km/h 4.8 km/h 94% 0 mm 0 W/m2
19:09 6.4 °C 5.5 °C 1028 hPa ENE 2.4 km/h 4.8 km/h 94% 0 mm 0 W/m2
19:14 6.4 °C 5.5 °C 1028 hPa ENE 0.3 km/h 4.8 km/h 94% 0 mm 0 W/m2
19:19 6.4 °C 5.5 °C 1028 hPa ENE 0.3 km/h 3.2 km/h 94% 0 mm 0 W/m2
19:24 6.4 °C 5.5 °C 1028 hPa Calm     94% 0 mm 0 W/m2
19:29 6.3 °C 5.4 °C 1028 hPa Calm     94% 0 mm 0 W/m2
19:34 6.2 °C 5.3 °C 1028 hPa Calm     94% 0 mm 0 W/m2
19:39 6.1 °C 5.2 °C 1028 hPa Calm     94% 0 mm 0 W/m2
19:44 5.9 °C 5 °C 1028.3 hPa Calm     94% 0 mm 0 W/m2
19:49 5.9 °C 5 °C 1028.3 hPa Calm     94% 0 mm 0 W/m2
19:54 5.7 °C 4.8 °C 1028.3 hPa Calm     94% 0 mm 0 W/m2
19:59 5.5 °C 4.6 °C 1028.3 hPa Calm     94% 0 mm 0 W/m2
20:04 5.3 °C 4.3 °C 1028.3 hPa Calm     94% 0 mm 0 W/m2
20:09 5.2 °C 4.2 °C 1028.7 hPa Calm     94% 0 mm 0 W/m2
20:14 4.9 °C 4.1 °C 1028.7 hPa Calm     94% 0 mm 0 W/m2
20:19 4.8 °C 3.9 °C 1028.7 hPa Calm     94% 0 mm 0 W/m2
20:24 4.7 °C 3.8 °C 1028.7 hPa Calm     94% 0 mm 0 W/m2
20:29 4.7 °C 3.7 °C 1028.7 hPa Calm     94% 0 mm 0 W/m2
20:34 4.4 °C 3.6 °C 1028.7 hPa Calm     94% 0 mm 0 W/m2
20:39 4.3 °C 3.4 °C 1028.7 hPa Calm     94% 0 mm 0 W/m2
20:44 4.3 °C 3.4 °C 1028.7 hPa Calm     94% 0 mm 0 W/m2
20:49 4.2 °C 3.2 °C 1029 hPa Calm     94% 0 mm 0 W/m2
20:54 4.1 °C 3.2 °C 1029 hPa Calm     94% 0 mm 0 W/m2
20:59 3.9 °C 3.1 °C 1029 hPa Calm     94% 0 mm 0 W/m2
21:04 3.9 °C 2.9 °C 1029 hPa Calm     94% 0 mm 0 W/m2
21:09 3.8 °C 2.9 °C 1029 hPa Calm     94% 0 mm 0 W/m2
21:14 3.7 °C 2.8 °C 1029 hPa Calm     94% 0 mm 0 W/m2
21:19 3.7 °C 2.8 °C 1029 hPa Calm     94% 0 mm 0 W/m2
21:24 3.6 °C 2.7 °C 1029 hPa Calm     94% 0 mm 0 W/m2
21:29 3.6 °C 2.7 °C 1029 hPa Calm     94% 0 mm 0 W/m2
21:34 3.4 °C 2.5 °C 1029 hPa Calm     94% 0 mm 0 W/m2
21:39 3.2 °C 2.3 °C 1029.3 hPa Calm     94% 0 mm 0 W/m2
21:44 3.2 °C 2.3 °C 1029.3 hPa Calm     94% 0 mm 0 W/m2
21:49 3.2 °C 2.3 °C 1029.3 hPa Calm     94% 0 mm 0 W/m2
21:54 3.1 °C 2.2 °C 1029.3 hPa Calm     94% 0 mm 0 W/m2
21:59 3.1 °C 2.2 °C 1029.3 hPa Calm     94% 0 mm 0 W/m2
22:04 3.1 °C 2.2 °C 1029.3 hPa Calm     94% 0 mm 0 W/m2
22:09 3.1 °C 2.2 °C 1029.3 hPa Calm     94% 0 mm 0 W/m2
22:14 3 °C 2.1 °C 1029.3 hPa Calm     94% 0 mm 0 W/m2
22:19 2.9 °C 2 °C 1029.3 hPa Calm     94% 0 mm 0 W/m2
22:24 3 °C 2.1 °C 1029.3 hPa Calm     94% 0 mm 0 W/m2
22:29 3 °C 2.1 °C 1029.3 hPa Calm     94% 0 mm 0 W/m2
22:34 3.2 °C 2.3 °C 1029.3 hPa ENE 0.6 km/h 4.8 km/h 94% 0 mm 0 W/m2
22:39 3.6 °C 2.7 °C 1029.3 hPa East 3.2 km/h 6.4 km/h 94% 0 mm 0 W/m2
22:44 3.9 °C 3 °C 1029.3 hPa East 1.4 km/h 6.4 km/h 94% 0 mm 0 W/m2
22:49 3.9 °C 3 °C 1029.3 hPa Calm   3.2 km/h 94% 0 mm 0 W/m2
22:54 3.7 °C 2.8 °C 1029.3 hPa East 1.3 km/h 3.2 km/h 94% 0 mm 0 W/m2
22:59 3.5 °C 2.6 °C 1029.3 hPa East 0.6 km/h 4.8 km/h 94% 0 mm 0 W/m2
23:04 3.6 °C 2.7 °C 1029.3 hPa East 0.8 km/h 4.8 km/h 94% 0 mm 0 W/m2
23:09 3.7 °C 2.8 °C 1029.3 hPa East 1.3 km/h 4.8 km/h 94% 0 mm 0 W/m2
23:14 3.8 °C 2.9 °C 1029.3 hPa East 0.6 km/h 4.8 km/h 94% 0 mm 0 W/m2
23:19 3.8 °C 2.9 °C 1029.3 hPa ESE 1.3 km/h 3.2 km/h 94% 0 mm 0 W/m2
23:24 3.7 °C 2.8 °C 1029.3 hPa ESE 2.9 km/h 4.8 km/h 94.4% 0 mm 0 W/m2
23:29 3.4 °C 2.6 °C 1029.3 hPa ESE 1.3 km/h 4.8 km/h 94% 0 mm 0 W/m2
23:34 3.4 °C 2.7 °C 1029.3 hPa ESE 1.3 km/h 3.2 km/h 95% 0 mm 0 W/m2
23:39 3.3 °C 2.7 °C 1029.3 hPa Calm   1.6 km/h 95% 0 mm 0 W/m2
23:44 3.4 °C 2.7 °C 1029.3 hPa ESE 1.8 km/h 3.2 km/h 95% 0 mm 0 W/m2
23:48 3.4 °C 2.7 °C 1029.3 hPa Calm   3.2 km/h 95% 0 mm 0 W/m2
23:54 3.5 °C 2.8 °C 1029.3 hPa ESE 2.1 km/h 6.4 km/h 95% 0 mm 0 W/m2
23:59 3.6 °C 2.8 °C 1029.3 hPa East 6 km/h 11.3 km/h 95% 0 mm 0 W/m2
Bath Spa Weather
Compliments of Weather Underground - 2 mb